Colbert, WA

6:29 PM PST on February 11, 2016 (GMT -0800)
Cambridge Knoll | | Change Station
CLOSE
Current Station
Personal Weather Station
Location: Colbert, WA
Elevation: 1939 ft
Nearby Weather Stations

Elev 1939 ft 47.81 °N, 117.40 °W | Updated 5 minutes ago

Overcast
Overcast
42.6 °F
Feels Like 39 °F
N
6.3
Wind Variable Wind from NW

Today
High -- | Low -- °F
--% Chance of Precip.
Yesterday
High -- | Low -- °F
Precip. -- in
Pressure 30.32 in
Visibility 10.0 miles
Clouds Overcast 5500 ft
Windchill 39 °F
Dew Point 37 °F
Humidity 81%
Rainfall 0.00 in
Snow Depth Not available.
7:02 AM 5:05 PM
Waxing Crescent, 16% visible
METAR KDEW 120153Z AUTO 32005KT 10SM OVC055 03/01 A3026 RMK AO2 SLP266 T00330011 TSNO
Pressure 30.32 in
Visibility 10.0 miles
Clouds Overcast 5500 ft
Windchill 39 °F
Dew Point 37 °F
Humidity 81%
Rainfall 0.00 in
Snow Depth Not available.
7:02 AM 5:05 PM
Waxing Crescent, 16% visible
METAR KDEW 120153Z AUTO 32005KT 10SM OVC055 03/01 A3026 RMK AO2 SLP266 T00330011 TSNO

10-Day Weather Forecast

Almanac

Astronomy

Feb. 11, 2016 Rise Set
Actual Time
Civil Twilight
Nautical Twilight
Astronomical Twilight
Moon
Length of Visible Light
Length of Day
Tomorrow will be .
, % of the Moon is Illuminated

Today's Extremes

State Highs State Lows

Community

WunderPhotos

Upload Photos

1,892,226 photos uploaded!

WunderBlog® & News

Nearby

Air Quality

  Air Quality AQ Index Pollutant
Not available.

Snow Depth

Station Depth Elevation

Earthquake Activity

City Distance Mag. Time & Date
Minimum magnitude displayed is 2.5.

Coastal Water Temperatures

Place Temperature

Stations

Nearby Weather Stations

Station Location Temp. Windchill Dew Point Humidity Wind Precip. Elev Updated Type
                   

Watches & Warnings

There are currently no watches in effect.